^^
Station Historical Data
Daily Summary for November 21, 2017 Units:  Metric    English   Both
« Previous Day
Next Day »
Daily Weekly Monthly Yearly Custom
  High: Low: Average:
Temperature: 26.8 °C 12.9 °C 19.9 °C
Dew Point: 8.9 °C -1.1 °C 4.8 °C
Humidity: 72% 19% 41%
Wind Speed: 35.2km/h 0km/h 15.3km/h
Wind Gust: 41.8km/h - -
Wind- - SSW
Pressure: 1015.8 hPa 1008 hPa -
Precipitation: 0 mm    
Historical Graphs
 
 
Tabular Data for November 21, 2017
Time Temperature Dew Point Pressure Wind Wind Speed Wind Gust Humidity Rainfall Rate (Hourly) solar Conditions
05:05 13.6 °C 8.4 °C 1008 hPa South 11.1 km/h 16.1 km/h 71% 0 mm 0.0 W/m2
05:25 13.3 °C 8.4 °C 1008 hPa South 11.1 km/h 16.1 km/h 72% 0 mm 0.0 W/m2
05:35 13.3 °C 8.4 °C 1008.4 hPa South 9.7 km/h 11.3 km/h 72% 0 mm 0.0 W/m2
05:40 13.3 °C 8.4 °C 1008.4 hPa South 6.4 km/h 8 km/h 72% 0 mm 0.0 W/m2
05:50 13.4 °C 8 °C 1008.4 hPa South 6.4 km/h 9.7 km/h 70% 0 mm 0.0 W/m2
05:56 13.4 °C 7.6 °C 1008.4 hPa South 14.3 km/h 14.5 km/h 68% 0 mm 7.0 W/m2
06:14 13.8 °C 7.3 °C 1008.7 hPa South 9.7 km/h 11.3 km/h 65% 0 mm 28.0 W/m2
06:36 14.2 °C 6.8 °C 1009.4 hPa South 6.4 km/h 11.3 km/h 61% 0 mm 53.0 W/m2
07:02 14.9 °C 5.9 °C 1009.7 hPa South 7.9 km/h 8 km/h 55% 0 mm 144.0 W/m2
07:32 16.1 °C 4.8 °C 1010 hPa South 13 km/h 14.5 km/h 47% 0 mm 304.0 W/m2
08:02 16.8 °C 4.1 °C 1010.4 hPa South 17.7 km/h 19.3 km/h 43% 0 mm 415.0 W/m2
08:18 17 °C 4.7 °C 1010.7 hPa South 11.1 km/h 16.1 km/h 44% 0 mm 457.0 W/m2
08:32 17.2 °C 5.2 °C 1010.7 hPa South 9.7 km/h 14.5 km/h 45% 0 mm 475.0 W/m2
08:48 17.2 °C 5.2 °C 1011.1 hPa South 6.4 km/h 8 km/h 45% 0 mm 550.0 W/m2
08:57 17.3 °C 5.3 °C 1011.1 hPa South 6.4 km/h 11.3 km/h 45% 0 mm 564.0 W/m2
09:29 18 °C 5.6 °C 1011.1 hPa South 4.7 km/h 9.7 km/h 44% 0 mm 670.0 W/m2
10:02 19.1 °C 4.8 °C 1010.7 hPa Calm   3.2 km/h 39% 0 mm 759.0 W/m2
10:20 19.9 °C 4 °C 1010.7 hPa Calm     35% 0 mm 810.0 W/m2
10:35 20.7 °C 3 °C 1011.1 hPa South 9.7 km/h 12.9 km/h 31% 0 mm 851.0 W/m2
11:00 21.8 °C 0.9 °C 1010.7 hPa Calm     25% 0 mm 900.0 W/m2
11:15 22.2 °C 0.7 °C 1010.7 hPa Calm     24% 0 mm 919.0 W/m2
11:31 23 °C 0.7 °C 1010.7 hPa Calm   12.9 km/h 23% 0 mm 935.0 W/m2
11:38 23 °C 0.7 °C 1010.7 hPa Calm   12.9 km/h 23% 0 mm 935.0 W/m2
11:46 23.3 °C -0.3 °C 1010.4 hPa WSW 7.9 km/h 14.5 km/h 21% 0 mm 953.0 W/m2
12:01 23.3 °C -0.9 °C 1010 hPa WSW 6.4 km/h 12.9 km/h 20% 0 mm 965.0 W/m2
12:10 23.3 °C -0.9 °C 1010 hPa WSW 6.4 km/h 12.9 km/h 20% 0 mm 965.0 W/m2
12:27 23.9 °C -1.1 °C 1010 hPa WSW 9.7 km/h 14.5 km/h 19% 0 mm 970.0 W/m2
12:38 24.1 °C -0.3 °C 1010 hPa Calm     20% 0 mm 974.0 W/m2
12:42 24.4 °C -0.7 °C 1009.7 hPa WSW 11.1 km/h 20.9 km/h 19% 0 mm 972.0 W/m2
12:50 24.6 °C -0.6 °C 1009.7 hPa WSW 14.3 km/h 20.9 km/h 19% 0 mm 974.0 W/m2
12:57 24.5 °C -0.6 °C 1009.7 hPa West 7.9 km/h 14.5 km/h 19% 0 mm 963.0 W/m2
13:52 25.9 °C 0.5 °C 1009 hPa Calm     19% 0 mm 914.0 W/m2
14:17 26.2 °C 1.5 °C 1008.7 hPa SW 1.4 km/h 17.7 km/h 20% 0 mm 874.0 W/m2
14:23 26.2 °C 1.5 °C 1008.7 hPa SW 1.4 km/h 17.7 km/h 20% 0 mm 874.0 W/m2
14:32 26.4 °C 2.3 °C 1008.7 hPa SSW 17.7 km/h 38.6 km/h 21% 0 mm 844.0 W/m2
15:08 26.2 °C 2.8 °C 1008.4 hPa SSW 13 km/h 14.5 km/h 22% 0 mm 768.0 W/m2
15:48 26.8 °C 4.5 °C 1008.4 hPa SW 16.3 km/h 20.9 km/h 24% 0 mm 657.0 W/m2
16:03 26.3 °C 5.3 °C 1008.4 hPa South 24.1 km/h 27.4 km/h 26% 0 mm 622.0 W/m2
16:23 26.2 °C 6.2 °C 1008.4 hPa SSW 24.1 km/h 29 km/h 28% 0 mm 534.0 W/m2
16:28 26.1 °C 7.6 °C 1008.4 hPa SSW 25.9 km/h 35.4 km/h 31% 0 mm 534.0 W/m2
17:05 25.1 °C 6.8 °C 1008.7 hPa South 28.8 km/h 33.8 km/h 31% 0 mm 404.0 W/m2
17:13 24.4 °C 8.4 °C 1009 hPa South 27.4 km/h 30.6 km/h 36% 0 mm 190.0 W/m2
17:33 23.7 °C 8.5 °C 1009 hPa South 28.8 km/h 35.4 km/h 38% 0 mm 366.0 W/m2
17:53 22.8 °C 8.9 °C 1009.7 hPa SSW 27.4 km/h 32.2 km/h 41% 0 mm 163.0 W/m2
18:15 22 °C 8.8 °C 1010 hPa SSW 28.8 km/h 40.2 km/h 43% 0 mm 127.0 W/m2
18:23 21.4 °C 8.3 °C 1010.4 hPa South 30.6 km/h 40.2 km/h 43% 0 mm 62.0 W/m2
18:37 20.8 °C 8.8 °C 1010.4 hPa SSW 28.8 km/h 37 km/h 46% 0 mm 47.0 W/m2
18:50 20.7 °C 8.3 °C 1010.7 hPa South 27.4 km/h 40.2 km/h 45% 0 mm 53.0 W/m2
18:59 19.8 °C 8.5 °C 1011.1 hPa SSW 35.2 km/h 37 km/h 48% 0 mm 26.0 W/m2
19:14 19.1 °C 7.8 °C 1011.1 hPa SW 28.8 km/h 41.8 km/h 48% 0 mm 12.0 W/m2
19:29 18.7 °C 7.5 °C 1011.7 hPa South 30.6 km/h 38.6 km/h 48% 0 mm 0.0 W/m2
19:44 18.2 °C 7 °C 1011.7 hPa SSW 22.7 km/h 38.6 km/h 48% 0 mm 0.0 W/m2
19:59 18 °C 6.5 °C 1012.4 hPa South 30.6 km/h 35.4 km/h 47% 0 mm 0.0 W/m2
20:20 17.7 °C 6.2 °C 1012.8 hPa SSW 24.1 km/h 30.6 km/h 47% 0 mm 0.0 W/m2
20:44 17.1 °C 6 °C 1013.4 hPa South 24.1 km/h 30.6 km/h 48% 0 mm 0.0 W/m2
20:52 17.1 °C 6 °C 1013.4 hPa South 24.1 km/h 30.6 km/h 48% 0 mm 0.0 W/m2
21:04 16.7 °C 6.2 °C 1013.4 hPa SSW 22.7 km/h 35.4 km/h 50% 0 mm 0.0 W/m2
21:41 16 °C 5.9 °C 1014.1 hPa South 19.5 km/h 32.2 km/h 51% 0 mm 0.0 W/m2
23:35 13.4 °C 5.3 °C 1015.8 hPa South 25.9 km/h 30.6 km/h 58% 0 mm 0.0 W/m2
23:40 13.2 °C 5.4 °C 1015.8 hPa SSE 24.1 km/h 33.8 km/h 59% 0 mm 0.0 W/m2
23:50 12.9 °C 5.3 °C 1015.8 hPa SSE 28.8 km/h 32.2 km/h 60% 0 mm 0.0 W/m2
23:55 12.9 °C 5.3 °C 1015.5 hPa South 28.8 km/h 35.4 km/h 60% 0 mm 0.0 W/m2
Canyon Roadhouse, Fishriver Canyon, Namibia
Compliments of Weather Underground - 2 mb